createdAt,value
2022-09-03T00:02:39.287Z,10.90
2022-09-03T00:05:27.050Z,10.90
2022-09-03T00:08:03.819Z,10.90
2022-09-03T00:10:49.941Z,10.80
2022-09-03T00:13:22.945Z,10.80
2022-09-03T00:15:51.849Z,10.80
2022-09-03T00:18:23.075Z,10.70
2022-09-03T00:21:08.604Z,10.70
2022-09-03T00:23:38.996Z,10.70
2022-09-03T00:26:11.435Z,10.60
2022-09-03T00:29:03.752Z,10.60
2022-09-03T00:31:37.597Z,10.60
2022-09-03T00:34:10.069Z,10.60
2022-09-03T00:36:42.637Z,10.60
2022-09-03T00:39:11.488Z,10.60
2022-09-03T00:42:15.528Z,10.50
2022-09-03T00:44:58.291Z,10.50
2022-09-03T00:47:34.968Z,10.50
2022-09-03T00:50:19.277Z,10.50
2022-09-03T00:53:00.437Z,10.40
2022-09-03T00:55:39.169Z,10.40
2022-09-03T00:58:20.618Z,10.40
2022-09-03T01:00:47.278Z,10.40
2022-09-03T01:03:34.482Z,10.20
2022-09-03T01:06:13.151Z,10.20
2022-09-03T01:09:00.079Z,10.20
2022-09-03T01:11:45.371Z,10.30
2022-09-03T01:14:48.272Z,10.30
2022-09-03T01:17:26.891Z,10.20
2022-09-03T01:20:02.891Z,10.20
2022-09-03T01:23:17.073Z,10.10
2022-09-03T01:25:54.787Z,10.20
2022-09-03T01:28:21.093Z,10.20
2022-09-03T01:31:09.199Z,10.20
2022-09-03T01:33:44.270Z,10.10
2022-09-03T01:36:23.987Z,10.10
2022-09-03T01:39:03.107Z,10.10
2022-09-03T01:42:03.426Z,10.00
2022-09-03T01:44:52.801Z,9.90
2022-09-03T01:47:50.307Z,10.00
2022-09-03T01:50:44.329Z,10.00
2022-09-03T01:53:27.450Z,10.00
2022-09-03T01:56:11.554Z,10.00
2022-09-03T01:58:44.241Z,9.90
2022-09-03T02:01:20.684Z,9.90
2022-09-03T02:03:48.261Z,10.00
2022-09-03T02:06:15.713Z,9.90
2022-09-03T02:08:42.165Z,10.00
2022-09-03T02:11:10.326Z,10.00
2022-09-03T02:13:48.315Z,10.00
2022-09-03T02:16:16.667Z,10.00
2022-09-03T02:18:46.728Z,9.90
2022-09-03T02:21:16.567Z,9.90
2022-09-03T02:23:43.315Z,9.90
2022-09-03T02:26:12.831Z,9.90
2022-09-03T02:28:39.303Z,9.90
2022-09-03T02:31:06.062Z,9.80
2022-09-03T02:33:37.855Z,9.80
2022-09-03T02:36:06.792Z,9.80
2022-09-03T02:38:33.418Z,9.80
2022-09-03T02:41:00.017Z,9.70
2022-09-03T02:43:46.527Z,9.80
2022-09-03T02:46:21.217Z,9.70
2022-09-03T02:48:47.861Z,9.70
2022-09-03T02:51:14.661Z,9.70
2022-09-03T02:53:42.068Z,9.60
2022-09-03T02:56:08.529Z,9.60
2022-09-03T02:58:35.114Z,9.50
2022-09-03T03:01:01.619Z,9.60
2022-09-03T03:03:28.307Z,9.60
2022-09-03T03:05:57.310Z,9.60
2022-09-03T03:08:31.250Z,9.60
2022-09-03T03:10:58.664Z,9.70
2022-09-03T03:13:26.322Z,9.70
2022-09-03T03:15:56.685Z,9.70
2022-09-03T03:18:23.234Z,9.70
2022-09-03T03:20:49.743Z,9.60
2022-09-03T03:23:16.555Z,9.50
2022-09-03T03:25:43.247Z,9.60
2022-09-03T03:28:09.839Z,9.50
2022-09-03T03:30:40.261Z,9.50
2022-09-03T03:33:07.380Z,9.50
2022-09-03T03:35:34.086Z,9.60
2022-09-03T03:38:00.969Z,9.50
2022-09-03T03:40:27.530Z,9.50
2022-09-03T03:42:54.794Z,9.40
2022-09-03T03:45:21.316Z,9.50
2022-09-03T03:47:47.921Z,9.50
2022-09-03T03:50:14.407Z,9.50
2022-09-03T03:52:40.866Z,9.40
2022-09-03T03:55:07.792Z,9.40
2022-09-03T03:57:34.291Z,9.40
2022-09-03T04:00:00.896Z,9.30
2022-09-03T04:02:27.441Z,9.40
2022-09-03T04:04:53.985Z,9.40
2022-09-03T04:07:20.559Z,9.50
2022-09-03T04:09:49.352Z,9.50
2022-09-03T04:12:17.801Z,9.40
2022-09-03T04:14:44.260Z,9.60
2022-09-03T04:17:10.757Z,9.70
2022-09-03T04:19:38.456Z,9.80
2022-09-03T04:22:04.911Z,9.80
2022-09-03T04:24:32.219Z,9.90
2022-09-03T04:26:58.733Z,9.90
2022-09-03T04:29:25.658Z,10.00
2022-09-03T04:32:10.645Z,10.00
2022-09-03T04:34:37.095Z,10.10
2022-09-03T04:37:03.553Z,10.10
2022-09-03T04:39:30.108Z,10.10
2022-09-03T04:41:57.650Z,10.20
2022-09-03T04:44:25.350Z,10.20
2022-09-03T04:46:53.235Z,10.30
2022-09-03T04:49:20.602Z,10.30
2022-09-03T04:51:47.103Z,10.30
2022-09-03T04:54:13.570Z,10.40
2022-09-03T04:56:40.430Z,10.40
2022-09-03T04:59:09.367Z,10.50
2022-09-03T05:01:38.381Z,10.60
2022-09-03T05:04:06.158Z,10.70
2022-09-03T05:06:34.000Z,10.70
2022-09-03T05:09:00.958Z,10.90
2022-09-03T05:11:28.449Z,11.00
2022-09-03T05:13:58.016Z,11.00
2022-09-03T05:16:25.953Z,11.00
2022-09-03T05:18:54.110Z,11.10
2022-09-03T05:21:21.355Z,11.20
2022-09-03T05:23:50.617Z,11.20
2022-09-03T05:26:20.097Z,11.30
2022-09-03T05:28:47.116Z,11.30
2022-09-03T05:31:18.906Z,11.40
2022-09-03T05:33:50.901Z,11.30
2022-09-03T05:36:20.662Z,11.40
2022-09-03T05:38:50.158Z,11.30
2022-09-03T05:41:19.062Z,11.40
2022-09-03T05:43:51.874Z,11.50
2022-09-03T05:46:18.543Z,11.40
2022-09-03T05:48:45.340Z,11.50
2022-09-03T05:51:17.685Z,11.50
2022-09-03T05:53:46.298Z,11.70
2022-09-03T05:56:17.763Z,11.70
2022-09-03T05:58:45.295Z,11.80
2022-09-03T06:01:20.735Z,12.00
2022-09-03T06:03:53.571Z,12.10
2022-09-03T06:06:25.538Z,12.30
2022-09-03T06:08:57.052Z,12.60
2022-09-03T06:11:26.808Z,12.70
2022-09-03T06:13:53.959Z,13.00
2022-09-03T06:16:29.089Z,13.30
2022-09-03T06:18:59.890Z,12.90
2022-09-03T06:21:26.570Z,14.20
2022-09-03T06:23:59.629Z,15.60
2022-09-03T06:26:28.538Z,17.80
2022-09-03T06:28:56.241Z,21.40
2022-09-03T06:31:23.475Z,23.00
2022-09-03T06:33:50.003Z,23.00
2022-09-03T06:36:18.369Z,24.20
2022-09-03T06:38:46.039Z,22.80
2022-09-03T06:41:26.189Z,24.10
2022-09-03T06:44:04.268Z,25.00
2022-09-03T06:46:33.299Z,26.40
2022-09-03T06:49:00.347Z,25.70
2022-09-03T06:51:28.656Z,23.10
2022-09-03T06:54:00.846Z,25.30
2022-09-03T06:56:27.330Z,26.50
2022-09-03T06:58:58.196Z,26.80
2022-09-03T07:01:25.999Z,26.80
2022-09-03T07:03:56.380Z,30.20
2022-09-03T07:06:24.976Z,27.10
2022-09-03T07:08:51.414Z,24.10
2022-09-03T07:11:20.265Z,23.30
2022-09-03T07:13:48.887Z,22.20
2022-09-03T07:16:23.919Z,21.60
2022-09-03T07:18:51.406Z,21.20
2022-09-03T07:21:23.576Z,20.80
2022-09-03T07:23:52.500Z,20.50
2022-09-03T07:26:23.085Z,21.50
2022-09-03T07:28:50.842Z,21.80
2022-09-03T07:31:26.113Z,21.60
2022-09-03T07:34:00.024Z,20.60
2022-09-03T07:36:29.485Z,20.40
2022-09-03T07:39:02.016Z,20.20
2022-09-03T07:41:29.106Z,20.70
2022-09-03T07:43:56.993Z,20.10
2022-09-03T07:46:26.894Z,20.60
2022-09-03T07:48:56.063Z,20.70
2022-09-03T07:51:26.584Z,22.90
2022-09-03T07:53:56.304Z,23.80
2022-09-03T07:56:23.127Z,23.30
2022-09-03T07:58:49.797Z,22.30
2022-09-03T08:01:18.797Z,25.70
2022-09-03T08:03:47.466Z,24.00
2022-09-03T08:06:15.821Z,22.70
2022-09-03T08:08:45.099Z,24.70
2022-09-03T08:11:17.324Z,25.30
2022-09-03T08:13:46.307Z,24.70
2022-09-03T08:16:14.166Z,25.50
2022-09-03T08:18:40.646Z,28.10
2022-09-03T08:21:09.536Z,25.80
2022-09-03T08:23:40.440Z,24.00
2022-09-03T08:26:07.755Z,25.60
2022-09-03T08:28:35.546Z,25.00
2022-09-03T08:31:13.249Z,25.80
2022-09-03T08:33:43.194Z,25.90
2022-09-03T08:36:15.389Z,24.10
2022-09-03T08:38:43.966Z,25.30
2022-09-03T08:41:14.750Z,24.80
2022-09-03T08:43:47.055Z,25.50
2022-09-03T08:46:13.665Z,26.40
2022-09-03T08:48:40.230Z,27.80
2022-09-03T08:51:08.618Z,30.40
2022-09-03T08:53:57.394Z,30.80
2022-09-03T08:56:33.030Z,31.30
2022-09-03T08:59:01.495Z,31.40
2022-09-03T09:01:42.895Z,30.20
2022-09-03T09:04:30.783Z,32.50
2022-09-03T09:07:27.806Z,31.70
2022-09-03T09:10:10.104Z,31.90
2022-09-03T09:13:02.632Z,32.20
2022-09-03T09:15:31.995Z,34.40
2022-09-03T09:18:15.152Z,34.20
2022-09-03T09:20:50.639Z,35.30
2022-09-03T09:23:46.012Z,34.00
2022-09-03T09:26:14.783Z,33.00
2022-09-03T09:28:43.343Z,32.10
2022-09-03T09:31:15.556Z,32.00
2022-09-03T09:33:42.561Z,32.80
2022-09-03T09:36:13.416Z,34.30
2022-09-03T09:38:40.182Z,32.20
2022-09-03T09:41:22.085Z,32.30
2022-09-03T09:44:05.281Z,31.80
2022-09-03T09:46:41.160Z,31.30
2022-09-03T09:49:32.097Z,31.50
2022-09-03T09:52:25.591Z,33.40
2022-09-03T09:54:54.833Z,33.80
2022-09-03T09:57:25.662Z,34.00
2022-09-03T10:00:13.271Z,34.30
2022-09-03T10:02:52.130Z,34.00
2022-09-03T10:05:25.643Z,32.40
2022-09-03T10:08:01.081Z,32.90
2022-09-03T10:10:29.151Z,30.40
2022-09-03T10:13:01.740Z,31.40
2022-09-03T10:15:40.754Z,31.80
2022-09-03T10:18:15.966Z,32.40
2022-09-03T10:21:04.451Z,32.40
2022-09-03T10:23:41.024Z,31.80
2022-09-03T10:26:17.111Z,30.80
2022-09-03T10:28:51.208Z,31.40
2022-09-03T10:31:31.630Z,32.80
2022-09-03T10:34:24.557Z,33.40
2022-09-03T10:37:10.175Z,31.30
2022-09-03T10:40:01.617Z,32.40
2022-09-03T10:42:46.663Z,29.30
2022-09-03T10:45:21.454Z,28.50
2022-09-03T10:48:12.806Z,30.10
2022-09-03T10:50:56.806Z,29.10
2022-09-03T10:53:37.510Z,28.60
2022-09-03T10:56:13.666Z,28.70
2022-09-03T10:58:56.481Z,27.30
2022-09-03T11:02:04.901Z,27.50
2022-09-03T11:05:02.992Z,28.10
2022-09-03T11:07:47.966Z,25.60
2022-09-03T11:10:34.769Z,25.70
2022-09-03T11:13:11.326Z,24.60
2022-09-03T11:16:18.212Z,25.10
2022-09-03T11:18:49.907Z,24.40
2022-09-03T11:21:25.789Z,24.30
2022-09-03T11:24:09.613Z,24.60
2022-09-03T11:26:36.517Z,24.70
2022-09-03T11:29:41.868Z,24.90
2022-09-03T11:32:17.895Z,24.50
2022-09-03T11:34:55.279Z,24.20
2022-09-03T11:37:29.200Z,24.00
2022-09-03T11:40:13.421Z,24.00
2022-09-03T11:42:42.720Z,24.00
2022-09-03T11:45:30.850Z,24.40
2022-09-03T11:47:57.509Z,24.80
2022-09-03T11:50:33.164Z,25.40
2022-09-03T11:53:25.562Z,25.20
2022-09-03T11:55:59.502Z,25.30
2022-09-03T11:58:34.571Z,24.80
2022-09-03T12:01:10.429Z,25.60
2022-09-03T12:03:52.883Z,25.70
2022-09-03T12:06:45.958Z,25.80
2022-09-03T12:09:46.089Z,25.00
2022-09-03T12:12:31.442Z,24.00
2022-09-03T12:15:25.813Z,23.60
2022-09-03T12:18:17.503Z,24.30
2022-09-03T12:20:44.148Z,24.60
2022-09-03T12:23:25.470Z,25.30
2022-09-03T12:25:53.105Z,24.50
2022-09-03T12:28:25.648Z,24.00
2022-09-03T12:30:54.015Z,24.30
2022-09-03T12:33:22.904Z,23.90
2022-09-03T12:36:00.993Z,23.80
2022-09-03T12:38:30.660Z,24.00
2022-09-03T12:43:51.830Z,23.90
2022-09-03T12:46:18.721Z,23.80
2022-09-03T12:52:06.817Z,25.00
2022-09-03T12:54:35.909Z,25.90
2022-09-03T12:57:03.291Z,25.10
2022-09-03T12:59:36.506Z,24.00
2022-09-03T13:02:14.356Z,24.10
2022-09-03T13:04:42.106Z,24.30
2022-09-03T13:07:22.081Z,24.00
2022-09-03T13:09:49.413Z,24.10
2022-09-03T13:19:58.081Z,24.50
2022-09-03T13:22:27.540Z,25.00
2022-09-03T13:25:16.785Z,25.00
2022-09-03T13:27:55.293Z,24.60
2022-09-03T13:30:31.082Z,25.10
2022-09-03T13:33:01.054Z,24.90
2022-09-03T13:36:02.144Z,24.70
2022-09-03T13:38:46.361Z,24.40
2022-09-03T13:41:21.073Z,24.20
2022-09-03T13:44:16.166Z,24.60
2022-09-03T13:46:51.214Z,25.30
2022-09-03T13:49:59.010Z,25.60
2022-09-03T13:52:35.397Z,25.80
2022-09-03T13:55:19.630Z,25.90
2022-09-03T13:58:30.467Z,25.80
2022-09-03T14:00:59.070Z,25.50
2022-09-03T14:04:11.412Z,25.40
2022-09-03T14:07:14.562Z,24.90
2022-09-03T14:10:05.750Z,24.50
2022-09-03T14:12:47.427Z,24.40
2022-09-03T14:15:34.183Z,24.60
2022-09-03T14:18:36.185Z,24.30
2022-09-03T14:21:21.360Z,24.20
2022-09-03T14:23:48.831Z,25.30
2022-09-03T14:26:38.140Z,25.80
2022-09-03T14:29:15.935Z,25.20
2022-09-03T14:32:18.361Z,25.00
2022-09-03T14:35:13.739Z,25.20
2022-09-03T14:38:00.376Z,25.40
2022-09-03T14:40:41.241Z,25.60
2022-09-03T14:43:38.611Z,25.20
2022-09-03T14:46:43.699Z,24.80
2022-09-03T14:49:15.997Z,25.00
2022-09-03T14:52:08.170Z,25.30
2022-09-03T14:54:56.335Z,24.50
2022-09-03T14:57:34.712Z,24.30
2022-09-03T15:00:26.226Z,24.50
2022-09-03T15:02:53.278Z,23.80
2022-09-03T15:05:52.035Z,24.00
2022-09-03T15:08:48.087Z,24.40
2022-09-03T15:11:22.720Z,24.60
2022-09-03T15:14:05.742Z,25.30
2022-09-03T15:16:47.941Z,25.30
2022-09-03T15:19:42.979Z,25.30
2022-09-03T15:22:50.056Z,24.40
2022-09-03T15:25:28.054Z,24.60
2022-09-03T15:28:34.130Z,24.40
2022-09-03T15:31:14.208Z,24.60
2022-09-03T15:33:54.898Z,24.40
2022-09-03T15:36:48.742Z,24.70
2022-09-03T15:39:23.228Z,24.70
2022-09-03T15:41:57.394Z,24.40
2022-09-03T15:44:34.672Z,24.30
2022-09-03T15:47:05.316Z,24.30
2022-09-03T15:50:02.419Z,24.20
2022-09-03T15:52:37.662Z,24.50
2022-09-03T15:55:22.991Z,24.30
2022-09-03T15:58:12.543Z,24.00
2022-09-03T16:00:52.911Z,24.10
2022-09-03T16:03:32.340Z,23.80
2022-09-03T16:06:04.814Z,23.60
2022-09-03T16:08:49.604Z,24.20
2022-09-03T16:11:21.574Z,23.60
2022-09-03T16:14:06.216Z,23.40
2022-09-03T16:16:47.636Z,23.30
2022-09-03T16:19:28.820Z,23.10
2022-09-03T16:21:58.096Z,23.10
2022-09-03T16:24:51.211Z,22.90
2022-09-03T16:27:23.285Z,23.10
2022-09-03T16:30:11.195Z,22.90
2022-09-03T16:33:19.800Z,22.90
2022-09-03T16:36:11.364Z,22.80
2022-09-03T16:38:57.988Z,23.40
2022-09-03T16:41:49.631Z,23.10
2022-09-03T16:44:45.897Z,23.10
2022-09-03T16:47:46.206Z,22.90
2022-09-03T16:50:36.690Z,22.80
2022-09-03T16:53:29.106Z,22.50
2022-09-03T16:56:25.828Z,22.50
2022-09-03T16:59:23.236Z,22.60
2022-09-03T17:02:40.591Z,22.60
2022-09-03T17:05:27.149Z,22.40
2022-09-03T17:08:05.984Z,22.40
2022-09-03T17:11:08.514Z,22.30
2022-09-03T17:13:57.692Z,22.00
2022-09-03T17:16:52.679Z,21.80
2022-09-03T17:19:31.914Z,21.60
2022-09-03T17:22:17.647Z,21.50
2022-09-03T17:24:56.673Z,21.40
2022-09-03T17:27:49.268Z,21.10
2022-09-03T17:30:26.255Z,21.20
2022-09-03T17:33:04.519Z,21.00
2022-09-03T17:35:38.363Z,20.90
2022-09-03T17:38:19.056Z,20.60
2022-09-03T17:41:23.195Z,20.30
2022-09-03T17:44:02.223Z,20.50
2022-09-03T17:46:45.940Z,20.20
2022-09-03T17:49:23.281Z,20.30
2022-09-03T17:51:59.341Z,20.20
2022-09-03T17:54:42.563Z,20.10
2022-09-03T17:57:30.921Z,19.60
2022-09-03T18:00:10.829Z,19.70
2022-09-03T18:03:02.231Z,19.50
2022-09-03T18:05:50.653Z,19.50
2022-09-03T18:08:40.728Z,19.50
2022-09-03T18:11:14.440Z,19.40
2022-09-03T18:13:48.233Z,19.10
2022-09-03T18:16:29.547Z,19.00
2022-09-03T18:19:29.196Z,18.90
2022-09-03T18:22:18.379Z,18.90
2022-09-03T18:25:16.965Z,18.70
2022-09-03T18:28:06.342Z,18.70
2022-09-03T18:30:52.764Z,18.60
2022-09-03T18:33:43.402Z,18.40
2022-09-03T18:36:29.844Z,18.40
2022-09-03T18:39:30.957Z,18.20
2022-09-03T18:43:04.637Z,18.20
2022-09-03T18:46:45.937Z,18.10
2022-09-03T18:49:15.880Z,18.20
2022-09-03T18:52:14.311Z,18.10
2022-09-03T18:55:28.288Z,18.20
2022-09-03T18:58:40.077Z,18.20
2022-09-03T19:01:57.346Z,17.90
2022-09-03T19:05:05.713Z,17.90
2022-09-03T19:08:18.792Z,17.80
2022-09-03T19:11:15.258Z,17.70
2022-09-03T19:14:01.183Z,17.70
2022-09-03T19:17:24.689Z,17.40
2022-09-03T19:20:27.307Z,17.40
2022-09-03T19:23:12.219Z,17.40
2022-09-03T19:25:57.216Z,17.40
2022-09-03T19:28:48.825Z,17.30
2022-09-03T19:31:34.044Z,17.20
2022-09-03T19:34:44.428Z,17.20
2022-09-03T19:37:38.933Z,17.10
2022-09-03T19:40:53.618Z,17.10
2022-09-03T19:43:47.697Z,17.00
2022-09-03T19:46:49.217Z,16.90
2022-09-03T19:49:50.299Z,16.80
2022-09-03T19:53:09.320Z,16.70
2022-09-03T19:56:02.829Z,16.80
2022-09-03T19:58:54.428Z,16.80
2022-09-03T20:01:43.767Z,16.80
2022-09-03T20:04:34.094Z,16.80
2022-09-03T20:07:21.592Z,16.80
2022-09-03T20:10:10.439Z,16.70
2022-09-03T20:12:43.084Z,16.70
2022-09-03T20:15:09.902Z,16.70
2022-09-03T20:18:02.549Z,16.60
2022-09-03T20:20:49.132Z,16.70
2022-09-03T20:23:23.858Z,16.70
2022-09-03T20:26:17.468Z,16.70
2022-09-03T20:29:00.128Z,16.70
2022-09-03T20:31:58.771Z,16.60
2022-09-03T20:34:40.101Z,16.70
2022-09-03T20:37:27.912Z,16.60
2022-09-03T20:40:14.842Z,16.60
2022-09-03T20:43:33.259Z,16.60
2022-09-03T20:46:28.876Z,16.50
2022-09-03T20:49:08.476Z,16.50
2022-09-03T20:51:53.206Z,16.50
2022-09-03T20:54:32.521Z,16.50
2022-09-03T20:57:05.674Z,16.50
2022-09-03T20:59:51.100Z,16.40
2022-09-03T21:03:09.064Z,16.40
2022-09-03T21:05:56.008Z,16.30
2022-09-03T21:08:59.424Z,16.20
2022-09-03T21:11:41.635Z,16.40
2022-09-03T21:14:22.091Z,16.30
2022-09-03T21:17:25.876Z,16.20
2022-09-03T21:20:10.999Z,16.30
2022-09-03T21:22:52.713Z,16.30
2022-09-03T21:25:28.381Z,16.30
2022-09-03T21:28:01.265Z,16.30
2022-09-03T21:30:30.128Z,16.20
2022-09-03T21:33:02.720Z,16.10
2022-09-03T21:35:44.808Z,16.10
2022-09-03T21:38:17.460Z,16.20
2022-09-03T21:40:55.345Z,16.10
2022-09-03T21:43:32.267Z,16.20
2022-09-03T21:46:15.298Z,16.20
2022-09-03T21:48:58.640Z,16.20
2022-09-03T21:51:33.544Z,16.20
2022-09-03T21:54:31.191Z,16.10
2022-09-03T21:57:22.308Z,16.20
2022-09-03T22:00:32.404Z,16.20
2022-09-03T22:03:00.322Z,16.20
2022-09-03T22:05:44.032Z,16.20
2022-09-03T22:08:22.708Z,16.20
2022-09-03T22:11:04.569Z,16.00
2022-09-03T22:13:52.389Z,16.10
2022-09-03T22:16:25.118Z,16.00
2022-09-03T22:18:52.399Z,16.10
2022-09-03T22:21:44.561Z,15.90
2022-09-03T22:24:31.179Z,16.00
2022-09-03T22:27:03.157Z,15.90
2022-09-03T22:29:46.252Z,15.90
2022-09-03T22:32:40.590Z,15.90
2022-09-03T22:35:28.852Z,15.80
2022-09-03T22:38:14.063Z,15.80
2022-09-03T22:40:52.430Z,15.80
2022-09-03T22:43:31.372Z,15.80
2022-09-03T22:46:11.758Z,15.90
2022-09-03T22:49:02.112Z,16.00
2022-09-03T22:51:35.256Z,15.90
2022-09-03T22:54:16.891Z,15.90
2022-09-03T22:56:43.950Z,16.00
2022-09-03T22:59:25.069Z,16.10
2022-09-03T23:02:10.398Z,16.00
2022-09-03T23:04:44.985Z,16.00
2022-09-03T23:07:39.395Z,16.10
2022-09-03T23:10:11.184Z,16.20
2022-09-03T23:12:44.961Z,16.20
2022-09-03T23:15:30.191Z,16.30
2022-09-03T23:18:19.587Z,16.20
2022-09-03T23:21:11.682Z,16.20
2022-09-03T23:23:44.086Z,16.10
2022-09-03T23:26:27.014Z,16.00
2022-09-03T23:29:02.848Z,16.10
2022-09-03T23:31:29.325Z,16.10
2022-09-03T23:33:56.085Z,16.10
2022-09-03T23:37:01.465Z,16.20
2022-09-03T23:39:42.817Z,16.10
2022-09-03T23:42:35.616Z,16.10
2022-09-03T23:45:15.627Z,16.20
2022-09-03T23:47:53.479Z,16.10
2022-09-03T23:50:28.913Z,16.20
2022-09-03T23:53:10.757Z,16.20
2022-09-03T23:56:08.494Z,16.10
2022-09-03T23:58:56.369Z,16.10
